Sally & Katherine — WDB2771 — position and weather

sailwx.info

Track history (hours):
 
Tides and Currents Weather Stations Pressure Air Temp Water Temp Dewpoint Dewpoint Depression Visibility Wind Speed Wind Dir Waves Ship Positions

Sally & Katherine

Owner: SAM & BEN FISHERIES INC, SANWICH, MA. More information available from US FCC via Universal Licensing System and Coast Guard Vessel Documentation Center.

Last reported at 2017-Dec-04 07:39 UTC. Time now 2017-Dec-16 20:47 UTC.
Position N 44°06' W 069°06'.
Warning: this ship's position is 12 days out of date.

Length 21 m.

Type: Fishing. MMSI: 366879580.

Date/timePositionNaut miles runAvg speedWind from/ knotsBaromVisibWave heightAir tempDewpointWater temp
2017-Dec-04 07:39N 44°06' W 069°06'1 5.8
2017-Dec-04 07:30N 44°06' W 069°05'4 7.0
2017-Dec-04 07:00N 44°04' W 069°01'6 7.6
2017-Dec-04 06:12N 43°58' W 068°60'  
2017-Nov-29 11:36N 44°06' W 069°06'0 0.0
2017-Nov-29 11:09N 44°06' W 069°06'0 0.0
2017-Nov-29 11:00N 44°06' W 069°06'0 0.0
2017-Nov-29 10:24N 44°06' W 069°06'0 0.0
2017-Nov-29 09:58N 44°06' W 069°06'0 0.0
2017-Nov-29 09:27N 44°06' W 069°06'0 0.0
2017-Nov-29 08:51N 44°06' W 069°06'0 0.0
2017-Nov-29 08:03N 44°06' W 069°06'0 0.0
2017-Nov-29 07:51N 44°06' W 069°06'0 0.0
2017-Nov-29 07:18N 44°06' W 069°06'0 0.0
2017-Nov-29 06:45N 44°06' W 069°06'0 0.0
2017-Nov-29 06:27N 44°06' W 069°06'0 0.0
2017-Nov-29 05:57N 44°06' W 069°06'0 0.0
2017-Nov-29 04:40N 44°06' W 069°06'1 6.0
2017-Nov-29 04:30N 44°06' W 069°04'4 7.8
2017-Nov-29 04:00N 44°04' W 068°60'  
Track history (hours):
 
Tides and Currents Weather Stations Pressure Air Temp Water Temp Dewpoint Dewpoint Depression Visibility Wind Speed Wind Dir Waves Ship Positions

Sally & Katherine

Owner: SAM & BEN FISHERIES INC, SANWICH, MA. More information available from US FCC via Universal Licensing System and Coast Guard Vessel Documentation Center.

Last reported at 2017-Dec-04 07:39 UTC. Time now 2017-Dec-16 20:47 UTC.
Position N 44°06' W 069°06'.
Warning: this ship's position is 12 days out of date.

Length 21 m.

Type: Fishing. MMSI: 366879580.

Date/timePositionNaut miles runAvg speedWind from/ knotsBaromVisibWave heightAir tempDewpointWater temp
2017-Dec-04 07:39N 44°06' W 069°06'1 5.8
2017-Dec-04 07:30N 44°06' W 069°05'4 7.0
2017-Dec-04 07:00N 44°04' W 069°01'6 7.6
2017-Dec-04 06:12N 43°58' W 068°60'  
2017-Nov-29 11:36N 44°06' W 069°06'0 0.0
2017-Nov-29 11:09N 44°06' W 069°06'0 0.0
2017-Nov-29 11:00N 44°06' W 069°06'0 0.0
2017-Nov-29 10:24N 44°06' W 069°06'0 0.0
2017-Nov-29 09:58N 44°06' W 069°06'0 0.0
2017-Nov-29 09:27N 44°06' W 069°06'0 0.0
2017-Nov-29 08:51N 44°06' W 069°06'0 0.0
2017-Nov-29 08:03N 44°06' W 069°06'0 0.0
2017-Nov-29 07:51N 44°06' W 069°06'0 0.0
2017-Nov-29 07:18N 44°06' W 069°06'0 0.0
2017-Nov-29 06:45N 44°06' W 069°06'0 0.0
2017-Nov-29 06:27N 44°06' W 069°06'0 0.0
2017-Nov-29 05:57N 44°06' W 069°06'0 0.0
2017-Nov-29 04:40N 44°06' W 069°06'1 6.0
2017-Nov-29 04:30N 44°06' W 069°04'4 7.8
2017-Nov-29 04:00N 44°04' W 068°60'  

Dump ship's entire track history